Time;durP1;ratioP1;P1;durP2;ratioP2;P2;SDS_P1;SDS_P2;PMS_P1;PMS_P2;Temp;Humidity;BMP_temperature;BMP_pressure;BME280_temperature;BME280_humidity;BME280_pressure;Samples;Min_cycle;Max_cycle;Signal;HPM_P1;HPM_P2
2021/12/31 00:02:16;;;;;;;12.10;7.93;;;;;;;7.57;nan;-24028.25;5092249;28;20181;-68
2021/12/31 00:04:42;;;;;;;11.50;7.50;;;;;;;7.47;nan;-24025.56;5093730;28;20195;-68
2021/12/31 00:07:07;;;;;;;11.07;7.67;;;;;;;7.80;nan;-24034.78;5093850;28;20185;-69
2021/12/31 00:09:33;;;;;;;10.33;7.40;;;;;;;7.92;nan;-24038.31;5092587;28;20189;-69
2021/12/31 00:11:58;;;;;;;10.50;7.20;;;;;;;7.81;nan;-24035.22;5092906;28;20273;-69
2021/12/31 00:14:25;;;;;;;9.73;7.20;;;;;;;7.42;nan;-24024.16;5092302;28;20190;-69
2021/12/31 00:16:50;;;;;;;10.93;7.33;;;;;;;7.75;nan;-24033.50;5091728;28;20621;-69
2021/12/31 00:19:16;;;;;;;10.77;7.20;;;;;;;7.71;nan;-24032.22;5092510;28;20268;-69
2021/12/31 00:21:46;;;;;;;10.93;6.93;;;;;;;7.70;nan;-24032.09;5093077;28;20221;-69
2021/12/31 00:24:11;;;;;;;10.87;7.73;;;;;;;7.69;nan;-24031.81;5093792;28;20177;-69
2021/12/31 00:26:37;;;;;;;10.87;7.27;;;;;;;7.48;nan;-24025.84;5092743;28;20177;-68
2021/12/31 00:29:03;;;;;;;9.83;7.00;;;;;;;7.72;nan;-24032.66;5092577;28;20177;-69
2021/12/31 00:31:28;;;;;;;11.33;7.47;;;;;;;7.83;nan;-24035.63;5092205;28;20184;-69
2021/12/31 00:33:54;;;;;;;10.70;7.73;;;;;;;7.36;nan;-24022.59;5090946;28;20242;-69
2021/12/31 00:36:19;;;;;;;13.10;8.03;;;;;;;7.79;nan;-24034.50;5091634;28;20208;-69
2021/12/31 00:38:45;;;;;;;11.20;7.37;;;;;;;7.28;nan;-24020.31;5092129;28;20643;-68
2021/12/31 00:41:10;;;;;;;11.70;7.97;;;;;;;7.34;nan;-24022.03;5092543;28;20579;-69
2021/12/31 00:43:36;;;;;;;13.97;8.80;;;;;;;7.18;nan;-24017.34;5090985;28;20189;-69
2021/12/31 00:46:02;;;;;;;15.17;9.00;;;;;;;7.39;nan;-24023.31;5090321;28;20657;-69
2021/12/31 00:48:28;;;;;;;12.80;8.80;;;;;;;7.87;nan;-24036.75;5092504;28;20330;-69
2021/12/31 00:50:54;;;;;;;12.07;8.30;;;;;;;7.70;nan;-24031.94;5092873;28;20224;-69
2021/12/31 00:53:20;;;;;;;13.40;8.90;;;;;;;7.73;nan;-24032.78;5091870;28;20189;-69
2021/12/31 00:55:45;;;;;;;12.80;9.20;;;;;;;7.51;nan;-24026.84;5091170;28;20177;-69
2021/12/31 00:58:11;;;;;;;12.63;8.77;;;;;;;7.80;nan;-24034.78;5091353;28;20181;-68
2021/12/31 01:00:37;;;;;;;17.47;9.17;;;;;;;7.61;nan;-24029.53;5089246;28;20286;-68
2021/12/31 01:03:02;;;;;;;12.87;9.60;;;;;;;7.32;nan;-24021.31;5074684;28;20185;-69
2021/12/31 01:05:28;;;;;;;15.50;8.80;;;;;;;7.24;nan;-24019.03;5091535;28;20185;-69
2021/12/31 01:07:54;;;;;;;12.93;9.30;;;;;;;7.28;nan;-24020.31;5092709;28;20181;-69
2021/12/31 01:10:24;;;;;;;12.13;9.20;;;;;;;7.25;nan;-24019.47;5091246;28;20648;-69
2021/12/31 01:12:50;;;;;;;14.10;9.30;;;;;;;7.38;nan;-24023.00;5092900;28;20181;-68
2021/12/31 01:15:34;;;;;;;12.67;8.90;;;;;;;7.43;nan;-24024.56;5091249;28;20231;-69
2021/12/31 01:20:25;;;;;;;13.73;8.97;;;;;;;6.97;nan;-24011.66;5091341;28;20215;-69
2021/12/31 01:22:51;;;;;;;13.07;8.97;;;;;;;7.05;nan;-24013.94;5091800;28;20181;-69
2021/12/31 01:25:17;;;;;;;14.87;9.30;;;;;;;7.12;nan;-24015.78;5092599;28;20178;-69
2021/12/31 01:27:43;;;;;;;13.50;9.37;;;;;;;6.94;nan;-24010.69;5090261;28;20188;-69
2021/12/31 01:30:13;;;;;;;15.67;9.80;;;;;;;6.58;nan;-24000.59;5089488;28;20177;-69
2021/12/31 01:32:40;;;;;;;13.90;9.03;;;;;;;6.82;nan;-24007.28;5091541;28;20181;-69
2021/12/31 01:35:05;;;;;;;13.13;8.80;;;;;;;7.01;nan;-24012.66;5092026;28;20534;-69
2021/12/31 01:37:31;;;;;;;13.03;8.07;;;;;;;7.02;nan;-24012.94;5091647;28;20188;-69
2021/12/31 01:39:56;;;;;;;12.70;8.67;;;;;;;6.55;nan;-23999.75;5091219;28;20203;-69
2021/12/31 01:42:32;;;;;;;12.20;8.47;;;;;;;6.55;nan;-23999.91;5092361;28;20190;-69
2021/12/31 01:45:04;;;;;;;12.03;8.47;;;;;;;7.03;nan;-24013.38;5088813;28;20686;-69
2021/12/31 01:47:56;;;;;;;11.00;7.60;;;;;;;6.60;nan;-24001.19;5091610;28;20187;-69
2021/12/31 01:50:29;;;;;;;13.70;8.10;;;;;;;6.58;nan;-24000.75;5091281;28;20225;-69
2021/12/31 01:52:55;;;;;;;14.13;8.20;;;;;;;6.59;nan;-24000.88;5091275;28;20250;-69
2021/12/31 01:55:23;;;;;;;12.27;7.67;;;;;;;6.80;nan;-24006.84;5090676;28;20292;-69
2021/12/31 01:57:49;;;;;;;12.37;8.60;;;;;;;6.46;nan;-23997.19;5090956;28;20199;-69
2021/12/31 02:00:15;;;;;;;11.93;8.10;;;;;;;6.85;nan;-24008.25;5091711;28;20228;-69
2021/12/31 02:02:45;;;;;;;10.70;7.80;;;;;;;6.33;nan;-23993.50;5090979;28;20200;-69
2021/12/31 02:05:11;;;;;;;12.37;7.67;;;;;;;6.66;nan;-24002.88;5081951;28;20703;-69
2021/12/31 02:07:38;;;;;;;12.07;7.80;;;;;;;6.66;nan;-24002.88;5091022;28;20192;-69
2021/12/31 02:10:04;;;;;;;11.67;7.90;;;;;;;6.12;nan;-23987.69;5091924;28;20184;-69
2021/12/31 02:12:30;;;;;;;12.73;8.37;;;;;;;6.16;nan;-23988.81;5091734;28;20589;-69
2021/12/31 02:14:57;;;;;;;13.43;8.23;;;;;;;5.94;nan;-23982.72;5089487;28;20177;-69
2021/12/31 02:17:23;;;;;;;12.63;8.33;;;;;;;6.12;nan;-23987.81;5091262;28;20188;-69
2021/12/31 02:20:16;;;;;;;12.50;8.50;;;;;;;6.40;nan;-23995.50;5091382;28;20193;-69
2021/12/31 02:22:52;;;;;;;11.93;8.90;;;;;;;6.16;nan;-23988.81;5088554;28;20201;-69
2021/12/31 02:25:19;;;;;;;13.47;9.23;;;;;;;6.12;nan;-23987.69;5091578;28;20176;-69
2021/12/31 02:27:45;;;;;;;12.27;8.87;;;;;;;6.34;nan;-23993.78;5091932;28;20655;-69
2021/12/31 02:30:11;;;;;;;11.30;8.10;;;;;;;6.18;nan;-23989.53;5090920;28;20192;-69
2021/12/31 02:32:38;;;;;;;12.57;8.10;;;;;;;6.45;nan;-23996.91;5091063;28;20681;-69
2021/12/31 02:35:05;;;;;;;12.23;8.20;;;;;;;6.33;nan;-23993.66;5090019;28;20196;-68
2021/12/31 02:37:32;;;;;;;12.30;8.00;;;;;;;5.97;nan;-23983.41;5091800;28;20599;-69
2021/12/31 02:39:58;;;;;;;11.67;8.13;;;;;;;5.66;nan;-23974.75;5091675;28;20193;-68
2021/12/31 02:42:24;;;;;;;11.50;8.20;;;;;;;5.30;nan;-23964.81;5091116;28;20283;-68
2021/12/31 02:44:51;;;;;;;11.83;8.40;;;;;;;5.77;nan;-23977.88;5091458;28;20374;-68
2021/12/31 02:47:16;;;;;;;12.73;8.97;;;;;;;5.63;nan;-23974.03;5089750;28;20629;-68
2021/12/31 02:49:44;;;;;;;14.07;9.07;;;;;;;5.77;nan;-23977.88;5090635;28;20328;-68
2021/12/31 02:52:12;;;;;;;15.50;10.07;;;;;;;5.57;nan;-23972.19;5091423;28;20185;-68
2021/12/31 02:54:42;;;;;;;12.50;9.70;;;;;;;5.37;nan;-23966.66;5075168;28;20264;-68
2021/12/31 02:57:08;;;;;;;14.87;9.57;;;;;;;5.79;nan;-23978.59;5091663;28;20189;-68
2021/12/31 02:59:34;;;;;;;15.13;9.83;;;;;;;5.66;nan;-23974.75;5090846;28;20181;-69
2021/12/31 03:02:00;;;;;;;14.80;9.93;;;;;;;5.67;nan;-23975.19;5090620;28;20217;-68
2021/12/31 03:04:28;;;;;;;15.83;10.27;;;;;;;5.33;nan;-23965.50;5091368;28;20177;-69
2021/12/31 03:06:57;;;;;;;14.83;9.93;;;;;;;5.51;nan;-23970.47;5091371;28;20185;-69
2021/12/31 03:09:24;;;;;;;16.57;10.67;;;;;;;5.07;nan;-23958.13;5077889;28;20188;-69
2021/12/31 03:11:55;;;;;;;14.33;9.50;;;;;;;5.18;nan;-23961.38;5089976;28;20182;-69
2021/12/31 03:14:22;;;;;;;14.97;10.53;;;;;;;5.30;nan;-23964.81;5089997;28;20229;-69
2021/12/31 03:16:48;;;;;;;15.73;9.90;;;;;;;5.53;nan;-23971.19;5090461;28;20189;-68
2021/12/31 03:19:14;;;;;;;17.97;10.07;;;;;;;5.54;nan;-23971.34;5091428;28;20185;-68
2021/12/31 03:21:40;;;;;;;15.57;9.77;;;;;;;5.17;nan;-23961.09;5090208;28;20209;-68
2021/12/31 03:24:05;;;;;;;13.97;9.80;;;;;;;5.71;nan;-23976.16;5091110;28;20200;-68
2021/12/31 03:26:31;;;;;;;15.27;9.10;;;;;;;5.55;nan;-23971.75;5091634;28;20181;-68
2021/12/31 03:28:57;;;;;;;15.10;9.27;;;;;;;5.01;nan;-23956.41;5093142;28;20192;-68
2021/12/31 03:31:23;;;;;;;13.33;9.33;;;;;;;5.40;nan;-23967.50;5094353;28;20196;-68
2021/12/31 03:33:48;;;;;;;13.63;9.17;;;;;;;5.54;nan;-23971.47;5093388;28;20185;-69
2021/12/31 03:36:13;;;;;;;12.83;8.90;;;;;;;5.52;nan;-23970.78;5092999;28;20181;-68
2021/12/31 03:38:39;;;;;;;14.03;9.03;;;;;;;5.48;nan;-23969.63;5094402;28;20260;-68
2021/12/31 03:41:04;;;;;;;16.17;9.27;;;;;;;5.28;nan;-23964.22;5093647;28;20289;-68
2021/12/31 03:43:30;;;;;;;12.53;8.83;;;;;;;4.90;nan;-23953.44;5093651;28;20177;-68
2021/12/31 03:45:55;;;;;;;13.03;9.20;;;;;;;5.37;nan;-23966.50;5094282;28;20222;-68
2021/12/31 03:48:21;;;;;;;13.30;9.17;;;;;;;4.98;nan;-23955.69;5093692;28;20623;-69
2021/12/31 03:50:47;;;;;;;16.20;9.33;;;;;;;4.75;nan;-23949.16;5094021;28;20286;-69
2021/12/31 03:53:14;;;;;;;16.27;10.00;;;;;;;4.86;nan;-23952.44;5093235;28;20196;-69
2021/12/31 03:55:40;;;;;;;12.40;8.23;;;;;;;5.02;nan;-23956.69;5093504;28;20187;-68
2021/12/31 03:58:06;;;;;;;13.13;9.07;;;;;;;4.76;nan;-23949.44;5092243;28;20670;-67
2021/12/31 04:00:31;;;;;;;15.97;9.47;;;;;;;5.22;nan;-23962.53;5092730;28;20201;-68
2021/12/31 04:02:57;;;;;;;15.40;9.23;;;;;;;4.76;nan;-23949.59;5081984;28;20234;-68
2021/12/31 04:05:24;;;;;;;12.93;8.47;;;;;;;5.22;nan;-23962.53;5093062;28;20195;-68
2021/12/31 04:07:51;;;;;;;11.77;8.83;;;;;;;4.93;nan;-23954.13;5092123;28;20184;-68
2021/12/31 04:10:16;;;;;;;12.57;8.60;;;;;;;4.84;nan;-23951.84;5094175;28;20207;-68
2021/12/31 04:12:42;;;;;;;13.07;8.90;;;;;;;4.86;nan;-23952.28;5092469;28;20224;-68
2021/12/31 04:15:07;;;;;;;11.57;7.83;;;;;;;4.97;nan;-23955.41;5093569;28;20195;-68
2021/12/31 04:17:33;;;;;;;10.93;7.23;;;;;;;5.00;nan;-23956.13;5093852;28;20700;-68
2021/12/31 04:19:58;;;;;;;11.60;7.80;;;;;;;5.10;nan;-23959.13;5093180;28;20264;-69
2021/12/31 04:22:26;;;;;;;13.77;7.73;;;;;;;5.67;nan;-23975.19;5092441;28;20543;-69
2021/12/31 04:24:52;;;;;;;10.93;7.10;;;;;;;5.55;nan;-23971.63;5092336;28;20185;-69
2021/12/31 04:27:19;;;;;;;10.97;7.70;;;;;;;5.84;nan;-23979.88;5093534;28;20184;-68
2021/12/31 04:29:51;;;;;;;11.13;7.53;;;;;;;5.29;nan;-23964.38;5093327;28;20180;-69
2021/12/31 04:32:22;;;;;;;10.53;7.10;;;;;;;5.52;nan;-23970.91;5093314;28;20164;-69
2021/12/31 04:34:48;;;;;;;11.40;7.57;;;;;;;5.64;nan;-23974.31;5093413;28;20264;-69
2021/12/31 04:37:14;;;;;;;11.23;7.70;;;;;;;5.41;nan;-23967.66;5092259;28;20177;-69
2021/12/31 04:39:40;;;;;;;12.73;8.30;;;;;;;5.80;nan;-23978.72;5093072;28;20177;-69
2021/12/31 04:42:05;;;;;;;11.97;8.53;;;;;;;5.72;nan;-23976.47;5092957;28;20181;-69
2021/12/31 04:44:31;;;;;;;12.30;8.30;;;;;;;5.56;nan;-23971.91;5091599;28;20174;-69
2021/12/31 04:46:56;;;;;;;11.73;8.10;;;;;;;5.32;nan;-23965.38;5092306;28;20191;-68
2021/12/31 04:49:22;;;;;;;12.27;8.23;;;;;;;5.24;nan;-23962.94;5093328;28;20185;-69
2021/12/31 04:51:47;;;;;;;14.40;8.20;;;;;;;5.56;nan;-23971.91;5092704;28;20228;-69
2021/12/31 04:54:15;;;;;;;13.27;8.37;;;;;;;5.24;nan;-23962.94;5091672;28;20213;-69
2021/12/31 04:56:44;;;;;;;12.60;8.10;;;;;;;5.72;nan;-23976.59;5093038;28;20255;-69
2021/12/31 04:59:10;;;;;;;15.03;8.40;;;;;;;5.25;nan;-23963.25;5093186;28;20177;-69
2021/12/31 05:01:36;;;;;;;16.57;8.77;;;;;;;5.81;nan;-23979.00;5091410;28;20270;-69
2021/12/31 05:04:02;;;;;;;13.97;8.50;;;;;;;5.39;nan;-23967.22;5093438;28;20173;-69
2021/12/31 05:06:27;;;;;;;12.23;8.30;;;;;;;5.69;nan;-23975.59;5090343;28;20209;-69
2021/12/31 05:08:53;;;;;;;10.67;7.50;;;;;;;5.36;nan;-23966.22;5081472;28;20238;-69
2021/12/31 05:11:19;;;;;;;13.93;8.57;;;;;;;5.64;nan;-23974.31;5088092;28;20177;-69
2021/12/31 05:13:44;;;;;;;12.40;8.40;;;;;;;5.17;nan;-23961.09;5091775;28;20181;-69
2021/12/31 05:16:10;;;;;;;12.70;8.53;;;;;;;5.16;nan;-23960.69;5090531;28;20195;-69
2021/12/31 05:18:35;;;;;;;12.57;8.57;;;;;;;5.24;nan;-23962.94;5089403;28;20181;-69
2021/12/31 05:21:01;;;;;;;12.73;8.73;;;;;;;5.30;nan;-23964.66;5089770;28;20684;-68
2021/12/31 05:23:26;;;;;;;11.43;7.87;;;;;;;5.69;nan;-23975.59;5090000;28;20181;-69
2021/12/31 05:25:51;;;;;;;11.37;8.07;;;;;;;5.31;nan;-23964.94;5090665;28;20191;-69
2021/12/31 05:28:17;;;;;;;11.27;7.80;;;;;;;5.64;nan;-23974.19;5092598;28;20185;-68
2021/12/31 05:30:43;;;;;;;12.73;8.27;;;;;;;5.51;nan;-23970.63;5091286;28;20563;-68
2021/12/31 05:33:08;;;;;;;11.40;7.83;;;;;;;4.92;nan;-23953.84;5092040;28;20181;-68
2021/12/31 05:35:33;;;;;;;11.70;7.80;;;;;;;5.50;nan;-23970.34;5091587;28;20184;-68
2021/12/31 05:37:59;;;;;;;12.93;8.30;;;;;;;5.50;nan;-23970.22;5092257;28;20593;-69
2021/12/31 05:40:25;;;;;;;12.30;8.13;;;;;;;5.11;nan;-23959.25;5089970;28;20209;-69
2021/12/31 05:42:50;;;;;;;12.13;7.97;;;;;;;4.86;nan;-23952.28;5091160;28;20177;-69
2021/12/31 05:45:16;;;;;;;10.40;7.63;;;;;;;4.93;nan;-23954.28;5090746;28;20173;-68
2021/12/31 05:47:42;;;;;;;14.30;8.67;;;;;;;5.28;nan;-23964.22;5090830;28;20181;-69
2021/12/31 05:50:18;;;;;;;12.67;8.77;;;;;;;5.29;nan;-23964.50;5091463;28;20771;-69
2021/12/31 05:52:45;;;;;;;13.60;8.80;;;;;;;4.78;nan;-23950.00;5090288;28;20181;-69
2021/12/31 05:55:10;;;;;;;13.30;8.53;;;;;;;5.22;nan;-23962.38;5090908;28;20296;-69
2021/12/31 05:57:36;;;;;;;12.87;8.57;;;;;;;4.93;nan;-23954.13;5090770;28;20695;-69
2021/12/31 06:00:01;;;;;;;13.40;8.30;;;;;;;4.94;nan;-23954.56;5090482;28;20621;-70
2021/12/31 06:02:27;;;;;;;13.27;8.70;;;;;;;5.29;nan;-23964.50;5089189;28;20173;-69
2021/12/31 06:04:52;;;;;;;12.93;8.47;;;;;;;4.76;nan;-23949.59;5088651;28;20188;-69
2021/12/31 06:07:18;;;;;;;12.40;8.20;;;;;;;5.18;nan;-23961.25;5089044;28;20180;-69
2021/12/31 06:09:43;;;;;;;13.73;9.20;;;;;;;5.28;nan;-23964.22;5090620;28;20268;-69
2021/12/31 06:12:09;;;;;;;15.87;9.80;;;;;;;4.89;nan;-23953.28;5090099;28;20216;-69
2021/12/31 06:14:34;;;;;;;14.97;10.00;;;;;;;5.13;nan;-23959.97;5088703;28;20272;-69
2021/12/31 06:17:06;;;;;;;13.40;9.40;;;;;;;5.22;nan;-23962.53;5090644;28;20220;-69
2021/12/31 06:19:33;;;;;;;14.40;9.20;;;;;;;5.53;nan;-23971.19;5089832;28;20604;-69
2021/12/31 06:21:58;;;;;;;13.73;8.93;;;;;;;5.79;nan;-23978.59;5090387;28;20684;-69
2021/12/31 06:24:24;;;;;;;15.30;9.77;;;;;;;5.74;nan;-23977.03;5090314;28;20187;-70
2021/12/31 06:26:49;;;;;;;13.70;8.73;;;;;;;5.44;nan;-23968.50;5090326;28;20660;-69
2021/12/31 06:29:15;;;;;;;13.70;9.17;;;;;;;5.90;nan;-23981.44;5088651;28;20648;-69
2021/12/31 06:31:40;;;;;;;16.43;9.53;;;;;;;5.99;nan;-23984.00;5077444;28;20675;-68
2021/12/31 06:34:05;;;;;;;13.43;9.33;;;;;;;6.00;nan;-23984.41;5088765;28;20181;-68
2021/12/31 06:36:31;;;;;;;14.43;9.83;;;;;;;5.50;nan;-23970.34;5090186;28;20181;-70
2021/12/31 06:38:58;;;;;;;14.97;9.17;;;;;;;5.61;nan;-23973.34;5089036;28;20185;-68
2021/12/31 06:41:23;;;;;;;13.80;8.80;;;;;;;6.11;nan;-23987.53;5089707;28;20752;-68
2021/12/31 06:43:49;;;;;;;13.07;8.50;;;;;;;6.27;nan;-23991.81;5089916;28;20287;-68
2021/12/31 06:46:14;;;;;;;14.27;8.90;;;;;;;5.80;nan;-23978.72;5089692;28;20185;-68
2021/12/31 06:48:40;;;;;;;15.57;8.83;;;;;;;5.97;nan;-23983.56;5088280;28;20264;-69
2021/12/31 06:51:05;;;;;;;15.23;8.00;;;;;;;6.17;nan;-23989.09;5090180;28;20244;-70
2021/12/31 06:53:31;;;;;;;14.80;8.10;;;;;;;6.30;nan;-23992.78;5089436;28;20174;-68
2021/12/31 06:55:56;;;;;;;12.33;8.47;;;;;;;6.09;nan;-23986.84;5090040;28;20659;-68
2021/12/31 06:58:21;;;;;;;13.40;8.03;;;;;;;6.66;nan;-24002.88;5088926;28;20185;-68
2021/12/31 07:00:47;;;;;;;14.47;8.87;;;;;;;6.67;nan;-24003.16;5090887;28;20197;-68
2021/12/31 07:03:13;;;;;;;15.10;8.37;;;;;;;6.54;nan;-23999.47;5093577;28;20185;-67
2021/12/31 07:05:43;;;;;;;15.60;8.93;;;;;;;6.72;nan;-24004.56;5094572;28;20181;-69
2021/12/31 07:08:09;;;;;;;17.57;9.03;;;;;;;7.03;nan;-24013.22;5093017;28;20196;-68
2021/12/31 07:10:35;;;;;;;12.93;8.47;;;;;;;6.59;nan;-24000.88;5093114;28;20192;-68
2021/12/31 07:13:10;;;;;;;15.43;9.03;;;;;;;7.14;nan;-24016.22;5094169;28;20735;-68
2021/12/31 07:15:41;;;;;;;13.47;8.43;;;;;;;6.78;nan;-24006.28;5093194;28;20184;-68
2021/12/31 07:18:07;;;;;;;14.83;9.07;;;;;;;7.39;nan;-24023.44;5093659;28;20178;-69
2021/12/31 07:20:33;;;;;;;12.20;7.97;;;;;;;7.41;nan;-24024.00;5092210;28;20201;-69
2021/12/31 07:23:10;;;;;;;10.43;7.37;;;;;;;7.19;nan;-24017.78;5092522;28;20667;-69
2021/12/31 07:25:38;;;;;;;12.80;7.80;;;;;;;7.84;nan;-24036.06;5080089;28;20543;-69
2021/12/31 07:28:04;;;;;;;11.93;7.67;;;;;;;7.74;nan;-24033.06;5092995;28;20193;-69
2021/12/31 07:30:29;;;;;;;10.10;7.20;;;;;;;7.89;nan;-24037.47;5093197;28;20256;-69
2021/12/31 07:32:55;;;;;;;10.10;7.47;;;;;;;7.18;nan;-24017.47;5093848;28;20640;-69
2021/12/31 07:35:21;;;;;;;11.07;7.40;;;;;;;8.04;nan;-24041.44;5092864;28;20177;-69
2021/12/31 07:37:47;;;;;;;11.30;7.33;;;;;;;8.19;nan;-24045.81;5092958;28;20234;-69
2021/12/31 07:40:12;;;;;;;8.43;6.13;;;;;;;8.04;nan;-24041.56;5092272;28;20217;-69
2021/12/31 07:42:39;;;;;;;9.07;6.03;;;;;;;7.67;nan;-24031.09;5092385;28;20197;-69
2021/12/31 07:45:06;;;;;;;9.47;6.43;;;;;;;7.74;nan;-24033.06;5093820;28;20238;-68
2021/12/31 07:47:32;;;;;;;11.50;7.80;;;;;;;8.11;nan;-24043.41;5092558;28;20264;-69
2021/12/31 07:49:57;;;;;;;11.17;7.33;;;;;;;7.78;nan;-24034.34;5093399;28;20225;-69
2021/12/31 07:52:22;;;;;;;12.03;7.73;;;;;;;8.38;nan;-24051.22;5091987;28;20181;-69
2021/12/31 07:54:48;;;;;;;11.17;7.10;;;;;;;8.06;nan;-24042.00;5094226;28;20683;-69
2021/12/31 07:57:14;;;;;;;11.03;7.57;;;;;;;8.26;nan;-24047.81;5075739;28;20181;-69
2021/12/31 07:59:39;;;;;;;11.87;7.90;;;;;;;8.19;nan;-24045.81;5093449;28;20695;-69
2021/12/31 08:02:04;;;;;;;12.73;7.50;;;;;;;8.22;nan;-24046.53;5094108;28;20706;-68
2021/12/31 08:04:30;;;;;;;10.33;7.10;;;;;;;8.59;nan;-24057.00;5093985;28;20257;-69
2021/12/31 08:06:55;;;;;;;11.37;7.20;;;;;;;8.53;nan;-24055.31;5092742;28;20189;-68
2021/12/31 08:09:21;;;;;;;15.00;7.60;;;;;;;8.67;nan;-24059.13;5092679;28;20181;-68
2021/12/31 08:11:46;;;;;;;10.88;7.28;;;;;;;9.20;nan;-24074.00;5093409;28;20625;-69
2021/12/31 08:14:12;;;;;;;10.77;7.53;;;;;;;8.92;nan;-24066.06;5092920;28;20181;-69
2021/12/31 08:16:37;;;;;;;10.30;7.47;;;;;;;8.90;nan;-24065.66;5093859;28;20177;-69
2021/12/31 08:19:03;;;;;;;12.60;8.50;;;;;;;9.06;nan;-24070.16;5090896;28;20181;-69
2021/12/31 08:21:28;;;;;;;13.30;8.48;;;;;;;8.72;nan;-24060.56;5092874;28;20208;-70
2021/12/31 08:23:54;;;;;;;13.38;7.68;;;;;;;8.62;nan;-24057.88;5093207;28;20534;-69
2021/12/31 08:26:19;;;;;;;10.65;7.10;;;;;;;8.73;nan;-24060.97;5092955;28;20199;-69
2021/12/31 08:28:45;;;;;;;10.32;7.20;;;;;;;9.31;nan;-24077.09;5093458;28;20177;-69
2021/12/31 08:31:10;;;;;;;12.23;7.20;;;;;;;9.38;nan;-24078.94;5092322;28;20270;-69
2021/12/31 08:33:35;;;;;;;11.18;7.38;;;;;;;9.25;nan;-24075.53;5093072;28;20528;-69
2021/12/31 08:36:01;;;;;;;11.98;6.82;;;;;;;9.73;nan;-24088.97;5091621;28;20178;-69
2021/12/31 08:38:26;;;;;;;11.43;7.22;;;;;;;10.06;nan;-24098.16;5092673;28;20259;-69
2021/12/31 08:40:54;;;;;;;10.90;6.68;;;;;;;9.72;nan;-24088.69;5092364;28;20576;-69
2021/12/31 08:43:20;;;;;;;11.40;6.97;;;;;;;9.80;nan;-24090.66;5093132;28;20239;-69
2021/12/31 08:45:45;;;;;;;9.88;7.40;;;;;;;9.76;nan;-24089.81;5092925;28;20643;-69
2021/12/31 08:48:11;;;;;;;11.20;7.78;;;;;;;9.37;nan;-24078.78;5093044;28;20226;-69
2021/12/31 08:50:36;;;;;;;8.30;6.05;;;;;;;9.52;nan;-24083.03;5091414;28;20720;-70
2021/12/31 08:53:03;;;;;;;10.60;6.30;;;;;;;10.04;nan;-24097.59;5093244;28;20262;-69
2021/12/31 08:55:29;;;;;;;8.43;5.85;;;;;;;9.76;nan;-24089.81;5092519;28;20189;-70
2021/12/31 08:57:54;;;;;;;8.52;6.15;;;;;;;10.19;nan;-24101.81;5091347;28;20681;-69
2021/12/31 09:00:20;;;;;;;9.88;6.35;;;;;;;10.01;nan;-24096.72;5092083;28;20201;-69
2021/12/31 09:02:46;;;;;;;11.73;8.20;;;;;;;10.27;nan;-24103.78;5091240;28;20234;-69
2021/12/31 09:05:12;;;;;;;9.40;5.97;;;;;;;10.21;nan;-24102.25;5091837;28;20173;-69
2021/12/31 09:07:37;;;;;;;10.30;5.80;;;;;;;10.06;nan;-24098.16;5090472;28;20188;-68
2021/12/31 09:10:04;;;;;;;15.70;6.25;;;;;;;9.98;nan;-24095.88;5087665;28;20207;-68
2021/12/31 09:12:30;;;;;;;7.85;5.70;;;;;;;10.25;nan;-24103.22;5088705;28;20280;-68
2021/12/31 09:14:55;;;;;;;7.05;5.43;;;;;;;10.36;nan;-24106.34;5091049;28;20664;-68
2021/12/31 09:17:22;;;;;;;8.65;6.03;;;;;;;9.88;nan;-24093.06;5091297;28;20554;-68
2021/12/31 09:19:49;;;;;;;7.85;5.50;;;;;;;10.33;nan;-24105.50;5091966;28;20169;-68
2021/12/31 09:22:14;;;;;;;8.45;5.13;;;;;;;10.14;nan;-24100.41;5090818;28;20636;-68
2021/12/31 09:24:40;;;;;;;6.97;5.32;;;;;;;10.69;nan;-24115.50;5090844;28;20197;-68
2021/12/31 09:27:05;;;;;;;10.60;5.75;;;;;;;10.83;nan;-24119.47;5091039;28;20188;-68
2021/12/31 09:29:31;;;;;;;10.57;5.20;;;;;;;10.63;nan;-24113.97;5092012;28;20173;-68
2021/12/31 09:31:56;;;;;;;9.82;4.95;;;;;;;10.80;nan;-24118.75;5091183;28;20185;-69
2021/12/31 09:34:22;;;;;;;8.35;5.00;;;;;;;10.50;nan;-24110.28;5090201;28;20245;-69
2021/12/31 09:36:47;;;;;;;7.10;5.15;;;;;;;11.10;nan;-24126.94;5090721;28;20182;-69
2021/12/31 09:39:13;;;;;;;7.97;5.90;;;;;;;11.27;nan;-24131.88;5092114;28;20177;-69
2021/12/31 09:41:39;;;;;;;8.40;6.22;;;;;;;11.20;nan;-24129.75;5090874;28;20226;-68
2021/12/31 09:44:05;;;;;;;9.35;6.03;;;;;;;11.28;nan;-24132.00;5092029;28;20187;-69
2021/12/31 09:46:32;;;;;;;8.77;6.07;;;;;;;11.01;nan;-24124.69;5090806;28;20181;-70
2021/12/31 09:48:57;;;;;;;7.45;6.07;;;;;;;11.17;nan;-24128.91;5091881;28;20184;-69
2021/12/31 09:51:24;;;;;;;8.30;6.07;;;;;;;11.33;nan;-24133.56;5091027;28;20225;-68
2021/12/31 09:53:51;;;;;;;8.38;6.25;;;;;;;10.93;nan;-24122.41;5091896;28;20238;-69
2021/12/31 09:56:16;;;;;;;7.88;5.45;;;;;;;11.25;nan;-24131.16;5091222;28;20197;-69
2021/12/31 09:58:42;;;;;;;7.03;5.18;;;;;;;10.93;nan;-24122.28;5092023;28;20177;-68
2021/12/31 10:01:09;;;;;;;8.93;4.95;;;;;;;11.68;nan;-24143.13;5091737;28;20201;-69
2021/12/31 10:03:35;;;;;;;5.50;4.32;;;;;;;11.48;nan;-24137.78;5091532;28;20169;-69
2021/12/31 10:06:11;;;;;;;7.03;5.28;;;;;;;11.34;nan;-24133.84;5091650;28;20234;-70
2021/12/31 10:08:42;;;;;;;8.45;5.30;;;;;;;11.27;nan;-24131.72;5090621;28;20273;-69
2021/12/31 10:11:13;;;;;;;12.10;7.28;;;;;;;11.95;nan;-24150.75;5091511;28;20181;-68
2021/12/31 10:13:43;;;;;;;13.27;6.95;;;;;;;11.97;nan;-24151.31;5091371;28;20175;-70
2021/12/31 10:16:36;;;;;;;11.82;6.07;;;;;;;11.90;nan;-24149.47;5091195;28;20177;-69
2021/12/31 10:19:13;;;;;;;8.50;6.10;;;;;;;11.63;nan;-24141.88;5091574;28;20166;-70
2021/12/31 10:21:41;;;;;;;9.60;5.80;;;;;;;12.17;nan;-24156.78;5091678;28;20675;-70
2021/12/31 10:24:32;;;;;;;6.05;4.70;;;;;;;11.97;nan;-24151.31;5091295;28;20592;-69
2021/12/31 10:27:13;;;;;;;7.68;5.47;;;;;;;12.10;nan;-24154.81;5091965;28;20257;-69
2021/12/31 10:29:59;;;;;;;8.05;4.97;;;;;;;12.14;nan;-24156.09;5091657;28;20203;-69
2021/12/31 10:32:36;;;;;;;8.18;5.75;;;;;;;11.67;nan;-24142.84;5091755;28;20715;-68
2021/12/31 10:35:15;;;;;;;6.97;4.97;;;;;;;11.80;nan;-24146.53;5093211;28;20185;-68
2021/12/31 10:37:53;;;;;;;7.35;5.47;;;;;;;11.51;nan;-24138.63;5095482;28;20570;-69
2021/12/31 10:40:36;;;;;;;8.05;5.15;;;;;;;11.39;nan;-24135.25;5095914;28;20254;-69
2021/12/31 10:43:23;;;;;;;7.50;5.32;;;;;;;11.45;nan;-24136.81;5095951;28;20581;-69
2021/12/31 10:46:07;;;;;;;10.00;6.07;;;;;;;11.30;nan;-24132.72;5095620;28;20201;-68
2021/12/31 10:48:47;;;;;;;12.80;6.30;;;;;;;11.50;nan;-24138.34;5094311;28;20177;-68
2021/12/31 10:51:15;;;;;;;9.45;6.05;;;;;;;11.60;nan;-24140.88;5092891;28;20217;-68
2021/12/31 10:53:44;;;;;;;10.13;6.13;;;;;;;11.76;nan;-24145.41;5090221;28;20209;-68
2021/12/31 10:56:11;;;;;;;9.85;6.00;;;;;;;12.02;nan;-24152.72;5095280;28;20661;-68
2021/12/31 10:58:39;;;;;;;9.82;5.90;;;;;;;12.21;nan;-24158.06;5095171;28;20185;-69
2021/12/31 11:01:10;;;;;;;8.25;5.72;;;;;;;12.04;nan;-24153.28;5095336;28;20201;-69
2021/12/31 11:03:37;;;;;;;8.10;5.38;;;;;;;12.05;nan;-24153.56;5095261;28;20260;-69
2021/12/31 11:06:04;;;;;;;6.45;4.55;;;;;;;11.98;nan;-24151.59;5095362;28;20235;-70
2021/12/31 11:08:32;;;;;;;5.93;4.70;;;;;;;12.43;nan;-24163.97;5093696;28;20539;-69
2021/12/31 11:10:58;;;;;;;6.72;4.82;;;;;;;12.38;nan;-24162.72;5095097;28;20172;-69
2021/12/31 11:13:28;;;;;;;5.60;4.25;;;;;;;12.27;nan;-24159.75;5095050;28;20177;-69
2021/12/31 11:15:54;;;;;;;7.85;5.15;;;;;;;12.39;nan;-24163.00;5095063;28;20536;-67
2021/12/31 11:18:23;;;;;;;5.43;4.28;;;;;;;11.94;nan;-24150.47;5094676;28;20667;-69
2021/12/31 11:20:50;;;;;;;10.30;4.60;;;;;;;12.32;nan;-24161.16;5094756;28;20196;-68
2021/12/31 11:23:16;;;;;;;6.65;4.60;;;;;;;12.14;nan;-24155.97;5094358;28;20166;-69
2021/12/31 11:25:58;;;;;;;5.82;4.03;;;;;;;12.69;nan;-24171.28;5094465;28;20554;-69
2021/12/31 11:28:29;;;;;;;5.95;4.40;;;;;;;12.52;nan;-24166.50;5094464;28;20173;-68
2021/12/31 11:30:56;;;;;;;7.85;4.80;;;;;;;12.22;nan;-24158.34;5094726;28;20173;-68
2021/12/31 11:33:28;;;;;;;6.90;4.53;;;;;;;12.24;nan;-24158.91;5094722;28;20253;-69
2021/12/31 11:35:53;;;;;;;6.32;4.30;;;;;;;12.42;nan;-24163.84;5094502;28;20271;-68
2021/12/31 11:38:22;;;;;;;5.97;4.30;;;;;;;12.64;nan;-24170.03;5094077;28;20177;-68
2021/12/31 11:41:00;;;;;;;6.93;4.82;;;;;;;12.43;nan;-24163.97;5094288;28;20197;-68
2021/12/31 11:43:27;;;;;;;9.15;4.43;;;;;;;12.30;nan;-24160.47;5094425;28;20169;-68
2021/12/31 11:46:11;;;;;;;6.85;4.50;;;;;;;12.66;nan;-24170.44;5093734;28;20196;-69